createdAt,value
2023-01-19T00:00:34.827Z,2.00
2023-01-19T00:03:03.214Z,1.90
2023-01-19T00:05:30.056Z,1.90
2023-01-19T00:07:56.795Z,1.90
2023-01-19T00:10:23.535Z,1.80
2023-01-19T00:12:50.256Z,1.80
2023-01-19T00:15:16.891Z,1.80
2023-01-19T00:17:43.538Z,1.80
2023-01-19T00:20:10.817Z,1.80
2023-01-19T00:22:37.437Z,1.70
2023-01-19T00:25:04.270Z,1.70
2023-01-19T00:27:34.801Z,1.80
2023-01-19T00:30:02.014Z,1.70
2023-01-19T00:32:28.787Z,1.70
2023-01-19T00:34:55.479Z,1.80
2023-01-19T00:37:22.186Z,1.80
2023-01-19T00:39:48.856Z,1.80
2023-01-19T00:42:34.093Z,1.80
2023-01-19T00:45:00.803Z,1.80
2023-01-19T00:47:27.462Z,1.80
2023-01-19T00:49:54.117Z,1.80
2023-01-19T00:52:20.738Z,1.80
2023-01-19T00:54:47.396Z,1.80
2023-01-19T00:57:15.756Z,1.80
2023-01-19T00:59:42.673Z,1.80
2023-01-19T01:02:09.451Z,1.70
2023-01-19T01:04:36.206Z,1.70
2023-01-19T01:07:03.467Z,1.70
2023-01-19T01:09:30.776Z,1.60
2023-01-19T01:11:57.446Z,1.60
2023-01-19T01:14:24.439Z,1.60
2023-01-19T01:16:51.296Z,1.60
2023-01-19T01:19:18.180Z,1.60
2023-01-19T01:21:44.812Z,1.70
2023-01-19T01:24:11.703Z,1.70
2023-01-19T01:26:38.437Z,1.80
2023-01-19T01:29:06.486Z,1.80
2023-01-19T01:31:33.211Z,1.80
2023-01-19T01:33:59.943Z,1.90
2023-01-19T01:36:29.157Z,1.90
2023-01-19T01:38:55.900Z,2.00
2023-01-19T01:41:25.490Z,2.00
2023-01-19T01:43:58.554Z,2.10
2023-01-19T01:46:26.894Z,2.20
2023-01-19T01:49:10.473Z,2.20
2023-01-19T01:51:42.315Z,2.20
2023-01-19T01:54:32.176Z,2.20
2023-01-19T01:57:03.189Z,2.20
2023-01-19T01:59:39.288Z,2.20
2023-01-19T02:02:28.930Z,2.20
2023-01-19T02:05:04.093Z,2.20
2023-01-19T02:08:12.933Z,2.20
2023-01-19T02:10:59.789Z,2.20
2023-01-19T02:13:29.170Z,2.20
2023-01-19T02:15:59.242Z,2.20
2023-01-19T02:18:29.187Z,2.20
2023-01-19T02:21:26.579Z,2.10
2023-01-19T02:23:55.784Z,2.10
2023-01-19T02:26:25.144Z,2.00
2023-01-19T02:29:02.109Z,2.00
2023-01-19T02:31:30.753Z,2.00
2023-01-19T02:33:59.844Z,2.00
2023-01-19T02:36:32.399Z,1.80
2023-01-19T02:39:01.280Z,1.70
2023-01-19T02:41:33.012Z,1.60
2023-01-19T02:44:01.016Z,1.50
2023-01-19T02:46:27.859Z,1.50
2023-01-19T02:48:59.160Z,1.50
2023-01-19T02:51:26.867Z,1.40
2023-01-19T02:54:17.863Z,1.40
2023-01-19T02:57:09.679Z,1.40
2023-01-19T03:00:12.848Z,1.50
2023-01-19T03:03:06.211Z,1.50
2023-01-19T03:05:57.072Z,1.50
2023-01-19T03:08:26.787Z,1.40
2023-01-19T03:11:09.463Z,1.40
2023-01-19T03:13:56.323Z,1.50
2023-01-19T03:16:41.081Z,1.50
2023-01-19T03:19:27.517Z,1.50
2023-01-19T03:22:09.415Z,1.50
2023-01-19T03:24:40.071Z,1.50
2023-01-19T03:27:13.698Z,1.60
2023-01-19T03:29:45.888Z,1.60
2023-01-19T03:32:16.279Z,1.70
2023-01-19T03:34:44.058Z,1.70
2023-01-19T03:37:13.949Z,1.80
2023-01-19T03:39:42.166Z,1.80
2023-01-19T03:42:14.009Z,1.80
2023-01-19T03:44:43.739Z,1.90
2023-01-19T03:47:13.382Z,1.90
2023-01-19T03:49:43.046Z,1.90
2023-01-19T03:52:10.448Z,2.00
2023-01-19T03:54:37.334Z,2.00
2023-01-19T03:57:04.407Z,2.10
2023-01-19T03:59:31.050Z,2.10
2023-01-19T04:01:57.892Z,2.10
2023-01-19T04:04:25.609Z,2.20
2023-01-19T04:06:52.298Z,2.10
2023-01-19T04:09:20.067Z,2.20
2023-01-19T04:11:46.895Z,2.10
2023-01-19T04:14:13.865Z,2.10
2023-01-19T04:16:40.515Z,2.10
2023-01-19T04:19:07.154Z,2.10
2023-01-19T04:21:33.831Z,2.10
2023-01-19T04:24:01.106Z,2.10
2023-01-19T04:26:28.202Z,2.20
2023-01-19T04:28:54.878Z,2.30
2023-01-19T04:31:23.265Z,2.30
2023-01-19T04:33:50.242Z,2.40
2023-01-19T04:36:17.357Z,2.40
2023-01-19T04:38:46.561Z,2.40
2023-01-19T04:41:13.244Z,2.50
2023-01-19T04:43:39.901Z,2.50
2023-01-19T04:46:07.110Z,2.50
2023-01-19T04:48:33.790Z,2.50
2023-01-19T04:51:00.496Z,2.60
2023-01-19T04:53:27.192Z,2.60
2023-01-19T04:55:55.122Z,2.60
2023-01-19T04:58:21.802Z,2.70
2023-01-19T05:00:48.580Z,2.70
2023-01-19T05:03:15.349Z,2.70
2023-01-19T05:05:42.020Z,2.70
2023-01-19T05:08:08.669Z,2.70
2023-01-19T05:10:36.551Z,2.80
2023-01-19T05:13:04.241Z,2.70
2023-01-19T05:15:31.166Z,2.80
2023-01-19T05:18:00.644Z,2.80
2023-01-19T05:20:27.388Z,2.80
2023-01-19T05:22:54.161Z,2.80
2023-01-19T05:25:20.974Z,2.80
2023-01-19T05:27:47.733Z,2.70
2023-01-19T05:30:14.783Z,2.70
2023-01-19T05:32:41.484Z,2.70
2023-01-19T05:35:08.599Z,2.80
2023-01-19T05:37:35.332Z,2.80
2023-01-19T05:40:01.993Z,2.80
2023-01-19T05:42:29.537Z,2.80
2023-01-19T05:44:56.997Z,2.80
2023-01-19T05:47:23.649Z,2.80
2023-01-19T05:49:50.284Z,2.80
2023-01-19T05:52:16.928Z,2.80
2023-01-19T05:54:43.559Z,2.80
2023-01-19T05:57:10.724Z,2.80
2023-01-19T05:59:37.532Z,2.70
2023-01-19T06:02:04.288Z,2.70
2023-01-19T06:04:30.978Z,2.70
2023-01-19T06:06:57.764Z,2.70
2023-01-19T06:09:24.448Z,2.60
2023-01-19T06:11:54.124Z,2.60
2023-01-19T06:14:20.947Z,2.60
2023-01-19T06:16:47.973Z,2.60
2023-01-19T06:19:15.078Z,2.60
2023-01-19T06:21:41.846Z,2.60
2023-01-19T06:24:09.896Z,2.60
2023-01-19T06:26:37.357Z,2.60
2023-01-19T06:29:04.024Z,2.60
2023-01-19T06:31:30.753Z,2.70
2023-01-19T06:33:57.436Z,2.70
2023-01-19T06:36:24.277Z,2.80
2023-01-19T06:38:50.985Z,2.80
2023-01-19T06:41:17.611Z,2.90
2023-01-19T06:43:44.248Z,2.90
2023-01-19T06:46:10.922Z,3.00
2023-01-19T06:48:37.563Z,3.20
2023-01-19T06:51:05.871Z,3.20
2023-01-19T06:53:33.195Z,3.10
2023-01-19T06:56:01.658Z,3.00
2023-01-19T06:58:29.414Z,3.00
2023-01-19T07:01:00.538Z,2.90
2023-01-19T07:03:27.355Z,2.90
2023-01-19T07:05:54.114Z,2.90
2023-01-19T07:08:21.085Z,2.80
2023-01-19T07:11:25.749Z,2.80
2023-01-19T07:13:36.176Z,2.80
2023-01-19T07:16:07.477Z,2.80
2023-01-19T07:18:35.659Z,2.80
2023-01-19T07:21:02.484Z,2.80
2023-01-19T07:23:32.136Z,2.80
2023-01-19T07:26:00.981Z,2.80
2023-01-19T07:28:31.684Z,2.80
2023-01-19T07:31:01.591Z,2.80
2023-01-19T07:33:29.205Z,2.80
2023-01-19T07:35:55.881Z,2.80
2023-01-19T07:38:22.815Z,2.80
2023-01-19T07:40:49.517Z,2.80
2023-01-19T07:43:16.375Z,2.70
2023-01-19T07:45:44.938Z,2.70
2023-01-19T07:48:11.709Z,2.80
2023-01-19T07:50:38.519Z,2.70
2023-01-19T07:53:07.399Z,2.80
2023-01-19T07:55:34.575Z,2.80
2023-01-19T07:58:01.408Z,2.80
2023-01-19T08:00:28.124Z,2.70
2023-01-19T08:03:00.190Z,2.80
2023-01-19T08:05:29.166Z,2.80
2023-01-19T08:07:57.613Z,2.80
2023-01-19T08:10:26.681Z,2.80
2023-01-19T08:12:54.515Z,2.90
2023-01-19T08:15:24.877Z,2.90
2023-01-19T08:17:56.459Z,2.90
2023-01-19T08:20:23.336Z,2.90
2023-01-19T08:22:50.142Z,2.90
2023-01-19T08:25:16.953Z,2.90
2023-01-19T08:27:44.560Z,3.00
2023-01-19T08:30:11.721Z,3.00
2023-01-19T08:32:38.415Z,3.00
2023-01-19T08:35:06.143Z,3.10
2023-01-19T08:37:34.295Z,3.10
2023-01-19T08:40:01.053Z,3.10
2023-01-19T08:42:28.075Z,3.10
2023-01-19T08:44:58.535Z,3.10
2023-01-19T08:47:25.400Z,3.10
2023-01-19T08:49:52.097Z,3.10
2023-01-19T08:52:18.803Z,3.20
2023-01-19T08:54:45.426Z,3.20
2023-01-19T08:57:12.154Z,3.20
2023-01-19T08:59:38.791Z,3.20
2023-01-19T09:02:05.456Z,3.20
2023-01-19T09:04:34.491Z,3.20
2023-01-19T09:07:01.132Z,3.20
2023-01-19T09:09:27.778Z,3.20
2023-01-19T09:11:55.581Z,3.20
2023-01-19T09:14:22.211Z,3.20
2023-01-19T09:16:48.894Z,3.20
2023-01-19T09:19:15.537Z,3.10
2023-01-19T09:21:42.194Z,3.10
2023-01-19T09:24:09.288Z,3.10
2023-01-19T09:26:36.788Z,3.00
2023-01-19T09:29:03.473Z,3.00
2023-01-19T09:31:30.183Z,3.00
2023-01-19T09:33:56.947Z,2.90
2023-01-19T09:36:23.630Z,2.90
2023-01-19T09:38:50.289Z,2.90
2023-01-19T09:41:22.128Z,2.90
2023-01-19T09:43:55.454Z,3.00
2023-01-19T09:46:51.975Z,3.00
2023-01-19T09:49:31.262Z,3.00
2023-01-19T09:51:59.245Z,3.00
2023-01-19T09:54:40.951Z,3.10
2023-01-19T09:57:12.142Z,3.10
2023-01-19T09:59:39.415Z,3.10
2023-01-19T10:02:23.389Z,3.20
2023-01-19T10:05:17.751Z,3.20
2023-01-19T10:07:58.320Z,3.30
2023-01-19T10:10:34.359Z,3.30
2023-01-19T10:13:34.089Z,3.30
2023-01-19T10:16:43.110Z,3.30
2023-01-19T10:19:23.772Z,3.40
2023-01-19T10:21:51.474Z,3.40
2023-01-19T10:24:29.512Z,3.40
2023-01-19T10:26:56.946Z,3.50
2023-01-19T10:29:37.797Z,3.50
2023-01-19T10:32:21.166Z,3.50
2023-01-19T10:34:49.332Z,3.50
2023-01-19T10:37:30.614Z,3.50
2023-01-19T10:40:11.943Z,3.60
2023-01-19T10:42:40.974Z,3.60
2023-01-19T10:45:36.728Z,3.70
2023-01-19T10:48:07.230Z,3.70
2023-01-19T10:50:40.740Z,3.80
2023-01-19T10:53:22.335Z,3.80
2023-01-19T10:56:13.676Z,3.80
2023-01-19T10:58:40.745Z,3.90
2023-01-19T11:01:29.850Z,3.90
2023-01-19T11:04:05.438Z,3.90
2023-01-19T11:06:34.288Z,4.00
2023-01-19T11:09:22.150Z,4.00
2023-01-19T11:11:52.044Z,4.10
2023-01-19T11:14:22.723Z,4.00
2023-01-19T11:16:55.777Z,4.10
2023-01-19T11:19:31.261Z,4.10
2023-01-19T11:22:21.799Z,4.10
2023-01-19T11:24:49.675Z,4.10
2023-01-19T11:27:18.167Z,4.20
2023-01-19T11:29:53.903Z,4.20
2023-01-19T11:32:22.628Z,4.20
2023-01-19T11:34:53.140Z,4.30
2023-01-19T11:37:19.725Z,4.30
2023-01-19T11:39:49.169Z,4.30
2023-01-19T11:42:17.634Z,4.40
2023-01-19T11:45:17.043Z,4.40
2023-01-19T11:47:52.524Z,4.40
2023-01-19T11:50:33.186Z,4.40
2023-01-19T11:53:06.857Z,4.40
2023-01-19T11:55:34.097Z,4.50
2023-01-19T11:58:02.773Z,4.50
2023-01-19T12:00:36.130Z,4.50
2023-01-19T12:03:25.297Z,4.50
2023-01-19T12:05:55.308Z,4.50
2023-01-19T12:08:26.930Z,4.50
2023-01-19T12:10:56.880Z,4.50
2023-01-19T12:13:26.055Z,4.50
2023-01-19T12:16:00.986Z,4.50
2023-01-19T12:18:36.902Z,4.60
2023-01-19T12:21:04.269Z,4.60
2023-01-19T12:23:41.225Z,4.70
2023-01-19T12:26:16.923Z,4.70
2023-01-19T12:28:47.979Z,4.80
2023-01-19T12:31:18.128Z,4.80
2023-01-19T12:33:45.157Z,4.80
2023-01-19T12:36:29.977Z,4.80
2023-01-19T12:39:16.769Z,4.80
2023-01-19T12:41:44.050Z,4.90
2023-01-19T12:44:10.913Z,4.90
2023-01-19T12:46:46.917Z,4.90
2023-01-19T12:49:31.482Z,5.00
2023-01-19T12:52:25.260Z,5.00
2023-01-19T12:55:13.787Z,5.00
2023-01-19T12:58:02.376Z,5.00
2023-01-19T13:00:37.673Z,5.00
2023-01-19T13:03:16.467Z,5.10
2023-01-19T13:05:43.069Z,5.10
2023-01-19T13:08:09.700Z,5.10
2023-01-19T13:11:00.780Z,5.30
2023-01-19T13:13:37.846Z,5.30
2023-01-19T13:16:20.093Z,5.40
2023-01-19T13:18:48.518Z,5.40
2023-01-19T13:21:26.928Z,5.50
2023-01-19T13:23:59.452Z,5.50
2023-01-19T13:26:30.450Z,5.50
2023-01-19T13:29:06.519Z,5.50
2023-01-19T13:31:42.637Z,5.50
2023-01-19T13:34:15.870Z,5.50
2023-01-19T13:36:46.030Z,5.60
2023-01-19T13:39:36.874Z,5.60
2023-01-19T13:42:29.534Z,5.60
2023-01-19T13:44:59.989Z,5.60
2023-01-19T13:47:39.059Z,5.60
2023-01-19T13:50:06.329Z,5.60
2023-01-19T13:52:33.155Z,5.70
2023-01-19T13:55:03.663Z,5.60
2023-01-19T13:57:33.732Z,5.70
2023-01-19T14:00:12.814Z,5.60
2023-01-19T14:02:52.947Z,5.60
2023-01-19T14:05:22.558Z,5.60
2023-01-19T14:08:08.612Z,5.60
2023-01-19T14:10:36.892Z,5.60
2023-01-19T14:13:12.954Z,5.60
2023-01-19T14:15:40.731Z,5.50
2023-01-19T14:18:11.796Z,5.60
2023-01-19T14:20:39.042Z,5.50
2023-01-19T14:23:07.299Z,5.50
2023-01-19T14:25:36.371Z,5.50
2023-01-19T14:28:35.590Z,5.50
2023-01-19T14:31:17.369Z,5.60
2023-01-19T14:33:46.911Z,5.60
2023-01-19T14:36:27.355Z,5.60
2023-01-19T14:38:56.149Z,5.60
2023-01-19T14:41:34.614Z,5.60
2023-01-19T14:44:02.373Z,5.50
2023-01-19T14:46:29.492Z,5.40
2023-01-19T14:49:02.718Z,5.40
2023-01-19T14:51:30.472Z,5.50
2023-01-19T14:53:59.543Z,5.40
2023-01-19T14:56:29.678Z,5.50
2023-01-19T14:58:57.967Z,5.50
2023-01-19T15:01:28.419Z,5.40
2023-01-19T15:03:58.368Z,5.40
2023-01-19T15:06:26.312Z,5.40
2023-01-19T15:08:53.664Z,5.30
2023-01-19T15:11:29.797Z,5.30
2023-01-19T15:13:56.491Z,5.20
2023-01-19T15:16:24.216Z,5.10
2023-01-19T15:18:50.934Z,5.00
2023-01-19T15:21:20.442Z,5.00
2023-01-19T15:23:50.345Z,4.90
2023-01-19T15:26:19.220Z,4.80
2023-01-19T15:28:46.908Z,4.80
2023-01-19T15:31:16.279Z,4.70
2023-01-19T15:33:43.551Z,4.60
2023-01-19T15:36:21.785Z,4.50
2023-01-19T15:38:51.025Z,4.50
2023-01-19T15:41:27.552Z,4.40
2023-01-19T15:43:54.223Z,4.30
2023-01-19T15:46:21.705Z,4.30
2023-01-19T15:48:49.591Z,4.20
2023-01-19T15:51:19.285Z,4.10
2023-01-19T15:53:46.462Z,4.10
2023-01-19T15:56:25.087Z,4.00
2023-01-19T15:58:52.838Z,3.90
2023-01-19T16:01:24.841Z,3.90
2023-01-19T16:03:51.647Z,3.80
2023-01-19T16:06:18.432Z,3.70
2023-01-19T16:08:45.356Z,3.60
2023-01-19T16:11:14.429Z,3.60
2023-01-19T16:13:45.224Z,3.50
2023-01-19T16:16:18.095Z,3.50
2023-01-19T16:18:45.569Z,3.40
2023-01-19T16:21:12.730Z,3.30
2023-01-19T16:23:39.591Z,3.30
2023-01-19T16:26:22.636Z,3.20
2023-01-19T16:28:49.445Z,3.20
2023-01-19T16:31:16.656Z,3.20
2023-01-19T16:33:44.893Z,3.10
2023-01-19T16:36:31.824Z,3.10
2023-01-19T16:39:06.891Z,3.00
2023-01-19T16:41:34.781Z,2.90
2023-01-19T16:44:01.512Z,2.90
2023-01-19T16:46:32.553Z,2.80
2023-01-19T16:49:01.333Z,2.70
2023-01-19T16:51:28.167Z,2.70
2023-01-19T16:53:54.930Z,2.60
2023-01-19T16:56:21.598Z,2.60
2023-01-19T16:58:48.377Z,2.50
2023-01-19T17:01:19.886Z,2.50
2023-01-19T17:03:47.434Z,2.40
2023-01-19T17:06:18.250Z,2.40
2023-01-19T17:08:45.083Z,2.30
2023-01-19T17:11:23.364Z,2.30
2023-01-19T17:14:01.460Z,2.20
2023-01-19T17:16:30.323Z,2.20
2023-01-19T17:18:58.666Z,2.20
2023-01-19T17:21:25.549Z,2.10
2023-01-19T17:23:54.299Z,2.00
2023-01-19T17:26:21.724Z,2.00
2023-01-19T17:28:48.401Z,2.00
2023-01-19T17:31:17.905Z,2.00
2023-01-19T17:33:46.431Z,1.90
2023-01-19T17:36:16.640Z,1.90
2023-01-19T17:38:43.319Z,1.80
2023-01-19T17:41:17.714Z,1.80
2023-01-19T17:43:44.977Z,1.70
2023-01-19T17:46:12.172Z,1.70
2023-01-19T17:48:41.937Z,1.70
2023-01-19T17:51:11.268Z,1.70
2023-01-19T17:53:44.911Z,1.60
2023-01-19T17:56:13.990Z,1.60
2023-01-19T17:58:41.123Z,1.60
2023-01-19T18:01:15.941Z,1.60
2023-01-19T18:03:43.063Z,1.60
2023-01-19T18:06:10.340Z,1.50
2023-01-19T18:08:41.993Z,1.50
2023-01-19T18:11:10.272Z,1.50
2023-01-19T18:13:39.188Z,1.50
2023-01-19T18:16:11.678Z,1.50
2023-01-19T18:18:38.781Z,1.50
2023-01-19T18:21:08.601Z,1.40
2023-01-19T18:23:35.733Z,1.40
2023-01-19T18:26:08.851Z,1.40
2023-01-19T18:28:36.111Z,1.40
2023-01-19T18:31:06.506Z,1.40
2023-01-19T18:33:34.038Z,1.40
2023-01-19T18:36:01.197Z,1.40
2023-01-19T18:38:27.973Z,1.40
2023-01-19T18:41:11.772Z,1.40
2023-01-19T18:43:39.213Z,1.40
2023-01-19T18:46:06.614Z,1.40
2023-01-19T18:48:33.887Z,1.40
2023-01-19T18:51:04.458Z,1.40
2023-01-19T18:53:32.164Z,1.30
2023-01-19T18:55:59.733Z,1.30
2023-01-19T18:58:29.759Z,1.30
2023-01-19T19:00:56.930Z,1.30
2023-01-19T19:03:24.193Z,1.30
2023-01-19T19:05:50.903Z,1.30
2023-01-19T19:08:17.716Z,1.30
2023-01-19T19:10:44.813Z,1.20
2023-01-19T19:13:13.161Z,1.30
2023-01-19T19:15:39.858Z,1.30
2023-01-19T19:18:08.899Z,1.30
2023-01-19T19:20:38.474Z,1.30
2023-01-19T19:23:05.158Z,1.30
2023-01-19T19:25:32.609Z,1.20
2023-01-19T19:27:59.264Z,1.30
2023-01-19T19:30:25.970Z,1.30
2023-01-19T19:32:56.437Z,1.30
2023-01-19T19:35:24.163Z,1.30
2023-01-19T19:37:51.548Z,1.30
2023-01-19T19:40:18.321Z,1.30
2023-01-19T19:42:45.011Z,1.30
2023-01-19T19:45:12.256Z,1.30
2023-01-19T19:47:39.215Z,1.30
2023-01-19T19:50:06.242Z,1.30
2023-01-19T19:52:38.297Z,1.30
2023-01-19T19:55:06.434Z,1.30
2023-01-19T19:57:33.178Z,1.30
2023-01-19T19:59:59.879Z,1.40
2023-01-19T20:02:26.565Z,1.40
2023-01-19T20:04:53.224Z,1.40
2023-01-19T20:07:19.884Z,1.40
2023-01-19T20:09:46.581Z,1.40
2023-01-19T20:12:13.215Z,1.50
2023-01-19T20:14:39.857Z,1.50
2023-01-19T20:17:06.525Z,1.50
2023-01-19T20:19:33.215Z,1.50
2023-01-19T20:21:59.861Z,1.50
2023-01-19T20:24:26.483Z,1.50
2023-01-19T20:26:53.361Z,1.50
2023-01-19T20:29:20.329Z,1.50
2023-01-19T20:31:50.355Z,1.50
2023-01-19T20:34:20.755Z,1.50
2023-01-19T20:36:49.741Z,1.50
2023-01-19T20:39:18.034Z,1.50
2023-01-19T20:41:45.544Z,1.50
2023-01-19T20:44:14.597Z,1.50
2023-01-19T20:46:41.386Z,1.50
2023-01-19T20:49:08.085Z,1.50
2023-01-19T20:51:35.981Z,1.60
2023-01-19T20:54:03.184Z,1.60
2023-01-19T20:56:29.857Z,1.60
2023-01-19T20:58:58.961Z,1.70
2023-01-19T21:01:26.301Z,1.60
2023-01-19T21:03:53.034Z,1.70
2023-01-19T21:06:21.241Z,1.70
2023-01-19T21:08:51.561Z,1.70
2023-01-19T21:11:20.879Z,1.70
2023-01-19T21:13:48.794Z,1.80
2023-01-19T21:16:15.755Z,1.80
2023-01-19T21:18:42.803Z,1.80
2023-01-19T21:21:17.823Z,1.80
2023-01-19T21:24:02.511Z,1.90
2023-01-19T21:26:30.179Z,1.90
2023-01-19T21:29:01.627Z,1.90
2023-01-19T21:31:28.698Z,1.90
2023-01-19T21:33:56.466Z,1.90
2023-01-19T21:36:23.913Z,1.80
2023-01-19T21:38:51.442Z,1.90
2023-01-19T21:41:20.507Z,1.80
2023-01-19T21:43:50.163Z,1.80
2023-01-19T21:46:18.558Z,1.80
2023-01-19T21:48:45.944Z,1.70
2023-01-19T21:51:13.609Z,1.70
2023-01-19T21:53:40.928Z,1.70
2023-01-19T21:56:09.429Z,1.70
2023-01-19T21:58:36.354Z,1.70
2023-01-19T22:01:06.394Z,1.70
2023-01-19T22:03:33.279Z,1.70
2023-01-19T22:06:07.839Z,1.70
2023-01-19T22:08:34.905Z,1.70
2023-01-19T22:11:05.475Z,1.70
2023-01-19T22:13:33.217Z,1.70
2023-01-19T22:16:04.802Z,1.70
2023-01-19T22:18:31.512Z,1.70
2023-01-19T22:21:11.031Z,1.70
2023-01-19T22:23:38.244Z,1.70
2023-01-19T22:26:05.874Z,1.60
2023-01-19T22:28:32.632Z,1.70
2023-01-19T22:31:10.921Z,1.60
2023-01-19T22:33:37.630Z,1.60
2023-01-19T22:36:13.671Z,1.60
2023-01-19T22:38:40.662Z,1.60
2023-01-19T22:41:34.567Z,1.60
2023-01-19T22:44:03.663Z,1.60
2023-01-19T22:46:32.476Z,1.70
2023-01-19T22:48:59.519Z,1.60
2023-01-19T22:51:27.342Z,1.60
2023-01-19T22:53:54.048Z,1.60
2023-01-19T22:56:23.272Z,1.60
2023-01-19T22:58:51.053Z,1.60
2023-01-19T23:01:20.739Z,1.60
2023-01-19T23:03:47.624Z,1.70
2023-01-19T23:06:20.327Z,1.50
2023-01-19T23:08:47.278Z,1.60
2023-01-19T23:11:36.028Z,1.60
2023-01-19T23:14:04.127Z,1.60
2023-01-19T23:16:32.852Z,1.60
2023-01-19T23:19:00.456Z,1.60
2023-01-19T23:21:32.651Z,1.60
2023-01-19T23:24:01.605Z,1.60
2023-01-19T23:26:30.861Z,1.60
2023-01-19T23:29:00.386Z,1.60
2023-01-19T23:31:30.143Z,1.60
2023-01-19T23:33:59.432Z,1.60
2023-01-19T23:36:27.934Z,1.60
2023-01-19T23:38:57.231Z,1.60
2023-01-19T23:41:25.529Z,1.60
2023-01-19T23:43:52.207Z,1.60
2023-01-19T23:46:20.195Z,1.60
2023-01-19T23:48:47.107Z,1.60
2023-01-19T23:51:23.350Z,1.70
2023-01-19T23:53:51.165Z,1.70
2023-01-19T23:56:19.703Z,1.70
2023-01-19T23:58:51.617Z,1.70
